createdAt,value
2022-12-19T00:02:34.108Z,102815.54
2022-12-19T00:05:07.412Z,102819.79
2022-12-19T00:07:40.529Z,102822.57
2022-12-19T00:10:13.626Z,102818.08
2022-12-19T00:12:46.449Z,102807.44
2022-12-19T00:15:19.267Z,102816.30
2022-12-19T00:17:52.340Z,102832.69
2022-12-19T00:20:25.579Z,102827.55
2022-12-19T00:22:59.543Z,102825.48
2022-12-19T00:25:32.349Z,102827.95
2022-12-19T00:28:06.983Z,102829.98
2022-12-19T00:30:43.277Z,102832.36
2022-12-19T00:33:16.424Z,102835.42
2022-12-19T00:35:49.591Z,102821.54
2022-12-19T00:38:22.972Z,102812.02
2022-12-19T00:40:56.456Z,102824.55
2022-12-19T00:43:29.902Z,102831.02
2022-12-19T00:46:06.146Z,102832.20
2022-12-19T00:48:39.944Z,102822.46
2022-12-19T00:51:19.318Z,102829.88
2022-12-19T00:53:55.780Z,102834.41
2022-12-19T00:56:31.646Z,102819.36
2022-12-19T00:59:14.653Z,102828.53
2022-12-19T01:01:51.740Z,102818.27
2022-12-19T01:04:29.249Z,102830.42
2022-12-19T01:07:08.177Z,102826.27
2022-12-19T01:09:41.693Z,102824.17
2022-12-19T01:12:33.977Z,102830.30
2022-12-19T01:15:07.459Z,102815.08
2022-12-19T01:17:44.363Z,102831.67
2022-12-19T01:20:29.739Z,102837.02
2022-12-19T01:23:04.820Z,102832.02
2022-12-19T01:25:41.596Z,102812.42
2022-12-19T01:28:20.541Z,102811.19
2022-12-19T01:30:55.493Z,102821.61
2022-12-19T01:33:28.427Z,102814.91
2022-12-19T01:36:10.456Z,102814.80
2022-12-19T01:38:42.855Z,102822.06
2022-12-19T01:41:16.547Z,102819.49
2022-12-19T01:44:04.841Z,102805.17
2022-12-19T01:46:42.938Z,102826.14
2022-12-19T01:49:39.098Z,102816.52
2022-12-19T01:52:19.495Z,102836.03
2022-12-19T01:55:01.746Z,102841.05
2022-12-19T01:57:35.537Z,102839.92
2022-12-19T02:00:17.021Z,102815.59
2022-12-19T02:03:03.158Z,102821.98
2022-12-19T02:05:40.087Z,102841.19
2022-12-19T02:08:15.583Z,102841.75
2022-12-19T02:10:48.906Z,102836.48
2022-12-19T02:13:24.163Z,102842.15
2022-12-19T02:16:32.070Z,102844.78
2022-12-19T02:19:46.497Z,102838.47
2022-12-19T02:22:40.939Z,102854.87
2022-12-19T02:25:37.593Z,102844.91
2022-12-19T02:28:24.215Z,102850.34
2022-12-19T02:31:17.467Z,102837.50
2022-12-19T02:34:04.900Z,102838.45
2022-12-19T02:36:55.239Z,102850.63
2022-12-19T02:39:51.393Z,102852.18
2022-12-19T02:42:34.269Z,102830.09
2022-12-19T02:45:11.866Z,102843.66
2022-12-19T02:47:50.293Z,102831.71
2022-12-19T02:50:23.355Z,102844.35
2022-12-19T02:52:57.200Z,102844.08
2022-12-19T02:55:32.565Z,102844.43
2022-12-19T02:58:28.702Z,102836.59
2022-12-19T03:01:19.728Z,102841.54
2022-12-19T03:03:56.207Z,102835.95
2022-12-19T03:06:45.690Z,102849.79
2022-12-19T03:09:45.129Z,102854.79
2022-12-19T03:12:32.614Z,102830.02
2022-12-19T03:15:07.027Z,102811.71
2022-12-19T03:17:43.372Z,102863.05
2022-12-19T03:20:34.376Z,102845.44
2022-12-19T03:23:08.218Z,102859.92
2022-12-19T03:25:43.336Z,102868.52
2022-12-19T03:28:30.229Z,102865.13
2022-12-19T03:31:05.714Z,102881.30
2022-12-19T03:33:41.344Z,102864.52
2022-12-19T03:36:21.261Z,102867.63
2022-12-19T03:38:56.715Z,102885.83
2022-12-19T03:41:50.272Z,102890.00
2022-12-19T03:44:28.760Z,102876.11
2022-12-19T03:47:15.394Z,102886.94
2022-12-19T03:49:49.781Z,102896.95
2022-12-19T03:52:42.846Z,102900.36
2022-12-19T03:55:30.873Z,102898.98
2022-12-19T03:58:15.731Z,102899.06
2022-12-19T04:00:51.469Z,102896.77
2022-12-19T04:03:26.024Z,102887.50
2022-12-19T04:06:01.495Z,102901.61
2022-12-19T04:08:35.994Z,102902.11
2022-12-19T04:11:17.185Z,102907.48
2022-12-19T04:13:58.022Z,102900.92
2022-12-19T04:16:40.620Z,102905.74
2022-12-19T04:19:42.478Z,102890.28
2022-12-19T04:22:54.349Z,102917.86
2022-12-19T04:25:35.818Z,102918.34
2022-12-19T04:28:36.667Z,102925.40
2022-12-19T04:31:13.735Z,102928.46
2022-12-19T04:33:47.589Z,102927.70
2022-12-19T04:36:20.961Z,102936.16
2022-12-19T04:38:54.445Z,102936.23
2022-12-19T04:41:27.817Z,102928.95
2022-12-19T04:44:01.067Z,102932.90
2022-12-19T04:46:34.321Z,102937.96
2022-12-19T04:49:07.704Z,102935.50
2022-12-19T04:51:41.656Z,102922.33
2022-12-19T04:54:15.114Z,102936.52
2022-12-19T04:56:48.471Z,102920.85
2022-12-19T04:59:21.772Z,102939.05
2022-12-19T05:01:55.142Z,102944.05
2022-12-19T05:04:28.178Z,102945.77
2022-12-19T05:07:01.479Z,102949.02
2022-12-19T05:09:34.587Z,102955.86
2022-12-19T05:12:11.082Z,102948.55
2022-12-19T05:14:45.237Z,102967.83
2022-12-19T05:17:18.432Z,102966.25
2022-12-19T05:19:51.648Z,102964.30
2022-12-19T05:22:34.250Z,102969.66
2022-12-19T05:25:07.782Z,102977.56
2022-12-19T05:27:41.243Z,102980.86
2022-12-19T05:30:14.755Z,102978.20
2022-12-19T05:32:47.677Z,102979.77
2022-12-19T05:35:21.009Z,102987.79
2022-12-19T05:37:53.901Z,102980.29
2022-12-19T05:40:26.880Z,102984.54
2022-12-19T05:43:00.310Z,102971.78
2022-12-19T05:45:33.596Z,102983.16
2022-12-19T05:48:08.672Z,102992.02
2022-12-19T05:50:43.029Z,103013.21
2022-12-19T05:53:18.116Z,102997.16
2022-12-19T05:55:54.184Z,102989.40
2022-12-19T05:58:27.106Z,103023.61
2022-12-19T06:01:07.863Z,103019.18
2022-12-19T06:03:40.800Z,103010.48
2022-12-19T06:06:16.395Z,103014.40
2022-12-19T06:08:49.240Z,103011.48
2022-12-19T06:11:21.809Z,103003.09
2022-12-19T06:13:55.107Z,102994.16
2022-12-19T06:16:28.783Z,103010.11
2022-12-19T06:19:02.036Z,103006.80
2022-12-19T06:21:39.757Z,102985.41
2022-12-19T06:24:22.767Z,103024.95
2022-12-19T06:26:56.042Z,103029.00
2022-12-19T06:29:29.637Z,103038.13
2022-12-19T06:32:02.639Z,103050.02
2022-12-19T06:37:30.916Z,103059.00
2022-12-19T06:40:04.476Z,103062.81
2022-12-19T06:42:37.545Z,103063.09
2022-12-19T06:45:10.669Z,103046.04
2022-12-19T06:47:44.581Z,103059.83
2022-12-19T06:50:20.897Z,103064.77
2022-12-19T06:52:53.783Z,103053.09
2022-12-19T06:55:27.282Z,103055.39
2022-12-19T06:57:59.851Z,103067.13
2022-12-19T07:00:33.609Z,103046.56
2022-12-19T07:03:14.066Z,103070.98
2022-12-19T07:05:46.917Z,103073.67
2022-12-19T07:08:19.671Z,103073.06
2022-12-19T07:10:54.200Z,103074.88
2022-12-19T07:13:27.858Z,103072.29
2022-12-19T07:16:04.816Z,103061.48
2022-12-19T07:18:41.138Z,103059.98
2022-12-19T07:21:15.058Z,103058.52
2022-12-19T07:23:48.478Z,103068.58
2022-12-19T07:26:21.835Z,103074.42
2022-12-19T07:28:55.259Z,103077.31
2022-12-19T07:31:27.924Z,103078.87
2022-12-19T07:34:01.357Z,103081.10
2022-12-19T07:36:34.268Z,103082.16
2022-12-19T07:39:07.724Z,103083.86
2022-12-19T07:41:41.201Z,103083.10
2022-12-19T07:44:14.099Z,103085.41
2022-12-19T07:46:48.430Z,103093.67
2022-12-19T07:49:22.963Z,103084.34
2022-12-19T07:51:56.440Z,103097.92
2022-12-19T07:54:29.865Z,103077.32
2022-12-19T07:57:04.388Z,103103.63
2022-12-19T07:59:39.456Z,103103.34
2022-12-19T08:02:13.541Z,103111.86
2022-12-19T08:04:47.049Z,103099.15
2022-12-19T08:07:22.891Z,103112.81
2022-12-19T08:09:56.515Z,103110.67
2022-12-19T08:12:29.594Z,103110.22
2022-12-19T08:15:02.633Z,103094.54
2022-12-19T08:17:35.315Z,103101.16
2022-12-19T08:20:09.974Z,103096.58
2022-12-19T08:22:43.241Z,103098.73
2022-12-19T08:25:16.423Z,103093.89
2022-12-19T08:27:49.480Z,103097.49
2022-12-19T08:30:22.309Z,103094.43
2022-12-19T08:32:55.229Z,103095.19
2022-12-19T08:35:28.050Z,103092.66
2022-12-19T08:38:00.898Z,103100.39
2022-12-19T08:40:34.534Z,103106.45
2022-12-19T08:43:07.647Z,103107.09
2022-12-19T08:45:41.109Z,103103.80
2022-12-19T08:48:14.400Z,103099.70
2022-12-19T08:51:13.951Z,103098.95
2022-12-19T08:53:48.600Z,103102.23
2022-12-19T08:56:23.200Z,103103.31
2022-12-19T08:58:56.683Z,103096.13
2022-12-19T09:01:30.793Z,103086.53
2022-12-19T09:05:04.747Z,103095.27
2022-12-19T09:06:59.200Z,103094.05
2022-12-19T09:09:32.552Z,103082.42
2022-12-19T09:12:05.517Z,103081.88
2022-12-19T09:14:39.588Z,103079.40
2022-12-19T09:17:13.114Z,103083.63
2022-12-19T09:19:47.886Z,103083.27
2022-12-19T09:22:21.432Z,103074.58
2022-12-19T09:25:01.968Z,103074.84
2022-12-19T09:28:01.376Z,103073.02
2022-12-19T09:30:30.362Z,103072.27
2022-12-19T09:33:05.289Z,103061.70
2022-12-19T09:35:39.014Z,103076.70
2022-12-19T09:38:13.021Z,103072.39
2022-12-19T09:41:18.080Z,103064.06
2022-12-19T09:44:11.292Z,103046.58
2022-12-19T09:46:58.200Z,103054.58
2022-12-19T09:49:43.699Z,103045.30
2022-12-19T09:52:33.212Z,103038.20
2022-12-19T09:55:23.087Z,103033.37
2022-12-19T09:58:12.217Z,103037.21
2022-12-19T10:01:00.237Z,103010.35
2022-12-19T10:03:43.225Z,103016.17
2022-12-19T10:07:10.525Z,103017.48
2022-12-19T10:10:37.535Z,103025.70
2022-12-19T10:12:52.832Z,103020.81
2022-12-19T10:16:00.651Z,103013.79
2022-12-19T10:18:51.162Z,103022.71
2022-12-19T10:25:08.292Z,103017.53
2022-12-19T10:28:00.049Z,103025.79
2022-12-19T10:30:45.370Z,103016.71
2022-12-19T10:33:32.839Z,103017.44
2022-12-19T10:36:12.474Z,103007.87
2022-12-19T10:39:03.352Z,103004.44
2022-12-19T10:41:43.983Z,102991.23
2022-12-19T10:44:21.036Z,102990.18
2022-12-19T10:46:54.217Z,103005.02
2022-12-19T10:49:29.864Z,103011.29
2022-12-19T10:52:04.635Z,103010.39
2022-12-19T10:54:44.565Z,102994.66
2022-12-19T10:57:27.756Z,103014.23
2022-12-19T11:00:17.439Z,103012.80
2022-12-19T11:02:54.865Z,103009.65
2022-12-19T11:05:45.082Z,103007.04
2022-12-19T11:08:26.348Z,103006.31
2022-12-19T11:12:35.611Z,103003.29
2022-12-19T11:19:23.195Z,103000.59
2022-12-19T11:21:18.909Z,102986.67
2022-12-19T11:22:33.760Z,102996.79
2022-12-19T11:29:32.145Z,102978.95
2022-12-19T11:29:42.536Z,102989.58
2022-12-19T11:30:47.109Z,102983.44
2022-12-19T11:32:38.720Z,102983.27
2022-12-19T11:35:17.871Z,102964.31
2022-12-19T11:37:55.767Z,102980.48
2022-12-19T11:40:44.659Z,102985.56
2022-12-19T11:43:44.382Z,102993.69
2022-12-19T11:46:28.523Z,102983.74
2022-12-19T11:49:28.025Z,102989.73
2022-12-19T11:52:18.611Z,102981.17
2022-12-19T11:55:18.744Z,102987.80
2022-12-19T11:57:52.226Z,102990.77
2022-12-19T12:00:27.016Z,102994.86
2022-12-19T12:03:23.604Z,102993.27
2022-12-19T12:05:58.970Z,102979.16
2022-12-19T12:10:11.513Z,102985.41
2022-12-19T12:16:23.509Z,102995.27
2022-12-19T12:26:05.512Z,102976.54
2022-12-19T12:31:00.482Z,102985.14
2022-12-19T12:31:40.620Z,102984.14
2022-12-19T12:31:51.536Z,102982.17
2022-12-19T12:32:05.402Z,102987.44
2022-12-19T12:35:56.815Z,102988.60
2022-12-19T12:42:06.545Z,102976.20
2022-12-19T12:44:45.856Z,102991.33
2022-12-19T12:47:27.038Z,102993.62
2022-12-19T12:50:01.352Z,102963.92
2022-12-19T12:52:49.892Z,102992.93
2022-12-19T12:55:48.069Z,102985.08
2022-12-19T12:58:54.361Z,102994.84
2022-12-19T13:01:38.208Z,102995.86
2022-12-19T13:04:16.682Z,102978.48
2022-12-19T13:06:54.262Z,102989.98
2022-12-19T13:09:37.362Z,102989.52
2022-12-19T13:12:48.408Z,102997.80
2022-12-19T13:15:37.858Z,102997.23
2022-12-19T13:18:32.677Z,103000.89
2022-12-19T13:21:07.468Z,102998.19
2022-12-19T13:23:40.288Z,102998.80
2022-12-19T13:26:50.340Z,103003.70
2022-12-19T13:29:36.625Z,103000.86
2022-12-19T13:32:20.062Z,102985.61
2022-12-19T13:35:31.502Z,102984.02
2022-12-19T13:39:59.855Z,102995.67
2022-12-19T13:42:01.421Z,102981.02
2022-12-19T13:44:45.623Z,102993.63
2022-12-19T13:47:23.824Z,102986.89
2022-12-19T13:49:59.109Z,102992.11
2022-12-19T13:52:32.487Z,102991.02
2022-12-19T13:55:06.300Z,102978.83
2022-12-19T13:57:41.722Z,102994.23
2022-12-19T14:00:21.437Z,102995.74
2022-12-19T14:03:01.284Z,102999.89
2022-12-19T14:06:18.151Z,102980.69
2022-12-19T14:08:32.953Z,102986.15
2022-12-19T14:11:37.249Z,102994.80
2022-12-19T14:14:28.328Z,102995.84
2022-12-19T14:17:10.737Z,102966.48
2022-12-19T14:19:44.786Z,102960.46
2022-12-19T14:22:27.251Z,102989.36
2022-12-19T14:28:15.324Z,102984.79
2022-12-19T14:28:17.243Z,102988.32
2022-12-19T14:31:08.795Z,102984.23
2022-12-19T14:34:11.096Z,102977.90
2022-12-19T14:36:49.340Z,102963.67
2022-12-19T14:39:29.331Z,102980.91
2022-12-19T14:43:55.503Z,102979.42
2022-12-19T14:53:17.581Z,102977.63
2022-12-19T14:54:02.056Z,102981.85
2022-12-19T14:54:21.292Z,102983.06
2022-12-19T14:58:50.713Z,102979.89
2022-12-19T15:01:08.048Z,102978.75
2022-12-19T15:03:33.511Z,102981.78
2022-12-19T15:07:07.279Z,102980.13
2022-12-19T15:11:00.107Z,102979.11
2022-12-19T15:14:47.503Z,102980.56
2022-12-19T15:15:56.583Z,102974.34
2022-12-19T15:18:44.139Z,102972.22
2022-12-19T15:21:17.467Z,102972.52
2022-12-19T15:23:50.270Z,102977.32
2022-12-19T15:26:37.180Z,102976.70
2022-12-19T15:29:21.502Z,102973.15
2022-12-19T15:31:56.893Z,102975.02
2022-12-19T15:34:35.538Z,102965.52
2022-12-19T15:37:18.206Z,102981.63
2022-12-19T15:39:51.330Z,102969.52
2022-12-19T15:42:28.536Z,102984.92
2022-12-19T15:45:03.391Z,102982.63
2022-12-19T15:47:37.899Z,102981.34
2022-12-19T15:50:23.883Z,102983.91
2022-12-19T15:53:02.254Z,102985.23
2022-12-19T15:55:37.606Z,102972.31
2022-12-19T15:58:10.936Z,102972.58
2022-12-19T16:00:51.231Z,102971.20
2022-12-19T16:03:25.593Z,102983.99
2022-12-19T16:05:59.339Z,102990.94
2022-12-19T16:08:32.768Z,102992.04
2022-12-19T16:11:05.949Z,102979.41
2022-12-19T16:13:39.143Z,102998.40
2022-12-19T16:16:15.963Z,102991.36
2022-12-19T16:18:49.663Z,102992.91
2022-12-19T16:21:34.007Z,102996.11
2022-12-19T16:24:08.907Z,102990.41
2022-12-19T16:26:42.751Z,102987.20
2022-12-19T16:29:27.648Z,102971.88
2022-12-19T16:32:02.371Z,102982.36
2022-12-19T16:34:35.916Z,102987.86
2022-12-19T16:37:08.918Z,102991.02
2022-12-19T16:39:41.766Z,102979.26
2022-12-19T16:42:18.872Z,102986.73
2022-12-19T16:44:51.832Z,102990.29
2022-12-19T16:47:24.823Z,102995.73
2022-12-19T16:49:58.101Z,102993.66
2022-12-19T16:52:31.320Z,102993.98
2022-12-19T16:55:04.744Z,102992.23
2022-12-19T16:57:38.103Z,102997.84
2022-12-19T17:00:16.638Z,102989.89
2022-12-19T17:02:53.589Z,102984.67
2022-12-19T17:05:29.836Z,102973.79
2022-12-19T17:08:03.374Z,102978.16
2022-12-19T17:10:37.149Z,102973.40
2022-12-19T17:13:12.535Z,102991.23
2022-12-19T17:15:52.575Z,102990.54
2022-12-19T17:18:38.711Z,102988.66
2022-12-19T17:21:18.514Z,102972.27
2022-12-19T17:23:52.296Z,102959.69
2022-12-19T17:26:26.156Z,102970.85
2022-12-19T17:28:59.028Z,102992.26
2022-12-19T17:31:38.909Z,102981.48
2022-12-19T17:34:27.911Z,102988.33
2022-12-19T17:37:02.190Z,102974.96
2022-12-19T17:39:37.427Z,102991.98
2022-12-19T17:42:28.740Z,102997.58
2022-12-19T17:45:05.917Z,103000.80
2022-12-19T17:47:39.387Z,103001.18
2022-12-19T17:50:27.166Z,103002.12
2022-12-19T17:53:00.548Z,103000.41
2022-12-19T17:55:34.378Z,102977.15
2022-12-19T17:58:08.491Z,102989.85
2022-12-19T18:00:42.862Z,103006.58
2022-12-19T18:03:25.874Z,102996.13
2022-12-19T18:05:59.967Z,103007.17
2022-12-19T18:08:34.509Z,102992.06
2022-12-19T18:11:09.479Z,102985.89
2022-12-19T18:13:43.190Z,103003.42
2022-12-19T18:16:18.859Z,102991.54
2022-12-19T18:18:51.653Z,102997.88
2022-12-19T18:21:28.124Z,102992.63
2022-12-19T18:24:01.946Z,102979.73
2022-12-19T18:26:35.328Z,102978.36
2022-12-19T18:29:08.992Z,102983.54
2022-12-19T18:31:49.807Z,102978.08
2022-12-19T18:34:28.129Z,102984.11
2022-12-19T18:37:01.625Z,102987.27
2022-12-19T18:39:35.389Z,102987.96
2022-12-19T18:42:23.187Z,102993.19
2022-12-19T18:44:56.777Z,102990.44
2022-12-19T18:47:29.923Z,102993.59
2022-12-19T18:50:02.892Z,102989.27
2022-12-19T18:52:36.133Z,102995.59
2022-12-19T18:55:19.491Z,102994.55
2022-12-19T18:57:53.501Z,102991.29
2022-12-19T19:00:28.984Z,102984.19
2022-12-19T19:03:13.424Z,102971.70
2022-12-19T19:05:47.849Z,102984.85
2022-12-19T19:08:26.678Z,102965.97
2022-12-19T19:11:18.894Z,102984.17
2022-12-19T19:13:52.571Z,102980.67
2022-12-19T19:16:30.093Z,102980.35
2022-12-19T19:19:03.387Z,102976.21
2022-12-19T19:21:37.816Z,102976.85
2022-12-19T19:24:15.579Z,102993.09
2022-12-19T19:26:50.139Z,102988.77
2022-12-19T19:29:23.257Z,102982.66
2022-12-19T19:31:56.508Z,102981.95
2022-12-19T19:34:36.261Z,102981.33
2022-12-19T19:37:11.696Z,102969.70
2022-12-19T19:39:44.809Z,102953.36
2022-12-19T19:42:19.808Z,102953.70
2022-12-19T19:44:52.897Z,102948.27
2022-12-19T19:47:37.654Z,102972.20
2022-12-19T19:50:12.703Z,102959.83
2022-12-19T19:52:46.458Z,102968.09
2022-12-19T19:55:19.403Z,102953.65
2022-12-19T19:57:53.021Z,102949.94
2022-12-19T20:00:26.159Z,102947.40
2022-12-19T20:03:02.097Z,102949.42
2022-12-19T20:05:41.583Z,102969.92
2022-12-19T20:08:14.688Z,102956.75
2022-12-19T20:10:47.751Z,102953.02
2022-12-19T20:13:20.820Z,102946.33
2022-12-19T20:15:54.034Z,102945.46
2022-12-19T20:18:26.709Z,102946.95
2022-12-19T20:20:59.638Z,102959.27
2022-12-19T20:23:32.583Z,102941.05
2022-12-19T20:26:06.615Z,102950.52
2022-12-19T20:28:47.432Z,102951.75
2022-12-19T20:31:25.540Z,102958.56
2022-12-19T20:33:59.155Z,102935.79
2022-12-19T20:36:32.718Z,102934.16
2022-12-19T20:39:06.204Z,102948.98
2022-12-19T20:41:40.301Z,102962.96
2022-12-19T20:44:16.426Z,102966.30
2022-12-19T20:46:55.665Z,102967.45
2022-12-19T20:49:28.798Z,102970.34
2022-12-19T20:52:02.078Z,102969.13
2022-12-19T20:54:35.281Z,102964.58
2022-12-19T20:57:08.280Z,102962.42
2022-12-19T20:59:41.584Z,102928.84
2022-12-19T21:02:14.471Z,102936.77
2022-12-19T21:04:48.012Z,102934.86
2022-12-19T21:07:21.653Z,102922.55
2022-12-19T21:09:54.955Z,102933.21
2022-12-19T21:12:28.295Z,102918.81
2022-12-19T21:15:01.037Z,102927.90
2022-12-19T21:17:33.922Z,102915.24
2022-12-19T21:20:06.943Z,102896.14
2022-12-19T21:22:40.023Z,102925.90
2022-12-19T21:25:12.916Z,102923.17
2022-12-19T21:27:47.057Z,102912.13
2022-12-19T21:30:20.514Z,102908.48
2022-12-19T21:32:53.600Z,102896.95
2022-12-19T21:35:26.731Z,102883.45
2022-12-19T21:37:59.950Z,102886.48
2022-12-19T21:40:33.002Z,102903.64
2022-12-19T21:43:11.815Z,102877.48
2022-12-19T21:45:47.016Z,102895.88
2022-12-19T21:48:20.021Z,102893.48
2022-12-19T21:50:58.515Z,102872.27
2022-12-19T21:53:31.721Z,102883.64
2022-12-19T21:56:21.966Z,102883.14
2022-12-19T21:58:57.296Z,102888.19
2022-12-19T22:01:32.312Z,102880.59
2022-12-19T22:04:14.107Z,102876.39
2022-12-19T22:06:47.630Z,102859.91
2022-12-19T22:09:24.628Z,102859.80
2022-12-19T22:11:57.937Z,102861.66
2022-12-19T22:14:31.416Z,102859.27
2022-12-19T22:17:06.086Z,102850.73
2022-12-19T22:19:39.461Z,102834.92
2022-12-19T22:22:12.949Z,102821.16
2022-12-19T22:24:46.236Z,102808.67
2022-12-19T22:27:19.664Z,102822.74
2022-12-19T22:29:53.140Z,102812.35
2022-12-19T22:32:26.398Z,102820.14
2022-12-19T22:34:59.633Z,102816.39
2022-12-19T22:37:33.287Z,102811.48
2022-12-19T22:40:06.641Z,102809.88
2022-12-19T22:42:39.891Z,102811.33
2022-12-19T22:45:13.342Z,102797.75
2022-12-19T22:47:46.854Z,102814.09
2022-12-19T22:50:20.176Z,102811.23
2022-12-19T22:52:53.474Z,102797.55
2022-12-19T22:55:26.562Z,102814.69
2022-12-19T22:57:59.987Z,102809.98
2022-12-19T23:00:33.700Z,102816.80
2022-12-19T23:03:07.220Z,102833.78
2022-12-19T23:05:40.488Z,102836.08
2022-12-19T23:08:13.797Z,102825.26
2022-12-19T23:10:46.651Z,102811.45
2022-12-19T23:13:19.521Z,102786.84
2022-12-19T23:15:52.578Z,102785.29
2022-12-19T23:18:26.206Z,102803.67
2022-12-19T23:21:16.472Z,102780.09
2022-12-19T23:23:51.690Z,102775.17
2022-12-19T23:26:35.163Z,102750.10
2022-12-19T23:29:13.646Z,102778.17
2022-12-19T23:31:48.775Z,102776.33
2022-12-19T23:34:22.099Z,102773.27
2022-12-19T23:37:11.856Z,102771.84
2022-12-19T23:39:48.331Z,102771.45
2022-12-19T23:42:21.524Z,102766.95
2022-12-19T23:44:54.445Z,102774.05
2022-12-19T23:47:27.704Z,102773.32
2022-12-19T23:50:00.661Z,102771.10
2022-12-19T23:52:34.176Z,102767.46
2022-12-19T23:55:07.360Z,102769.51
2022-12-19T23:57:41.122Z,102759.73
